createdAt,value
2018-12-13T00:01:03.134Z,23.70
2018-12-13T00:03:30.635Z,23.90
2018-12-13T00:05:58.430Z,23.10
2018-12-13T00:08:25.933Z,20.10
2018-12-13T00:10:53.437Z,20.70
2018-12-13T00:13:20.941Z,21.40
2018-12-13T00:15:48.889Z,23.70
2018-12-13T00:18:16.384Z,21.30
2018-12-13T00:20:43.905Z,25.90
2018-12-13T00:23:11.407Z,24.10
2018-12-13T00:25:38.932Z,23.80
2018-12-13T00:28:06.479Z,25.90
2018-12-13T00:30:34.002Z,24.90
2018-12-13T00:33:01.502Z,24.10
2018-12-13T00:35:29.126Z,27.10
2018-12-13T00:37:56.627Z,25.40
2018-12-13T00:40:24.143Z,24.30
2018-12-13T00:42:51.633Z,27.10
2018-12-13T00:45:19.157Z,23.90
2018-12-13T00:47:46.657Z,24.50
2018-12-13T00:50:14.500Z,25.10
2018-12-13T00:52:42.037Z,25.20
2018-12-13T00:55:09.537Z,28.50
2018-12-13T00:57:37.032Z,29.20
2018-12-13T01:00:05.129Z,32.50
2018-12-13T01:02:32.629Z,30.60
2018-12-13T01:05:00.149Z,30.80
2018-12-13T01:07:27.645Z,33.60
2018-12-13T01:09:56.393Z,34.40
2018-12-13T01:12:24.373Z,35.50
2018-12-13T01:14:51.878Z,33.10
2018-12-13T01:17:19.370Z,33.70
2018-12-13T01:19:46.886Z,29.50
2018-12-13T01:22:14.406Z,30.10
2018-12-13T01:24:41.926Z,30.60
2018-12-13T01:27:09.425Z,29.80
2018-12-13T01:29:36.942Z,29.00
2018-12-13T01:32:04.445Z,33.30
2018-12-13T01:34:31.964Z,29.90
2018-12-13T01:36:59.491Z,25.80
2018-12-13T01:39:27.859Z,31.20
2018-12-13T01:41:55.385Z,32.20
2018-12-13T01:44:22.881Z,29.10
2018-12-13T01:46:50.405Z,29.90
2018-12-13T01:49:17.901Z,35.00
2018-12-13T01:51:45.734Z,35.10
2018-12-13T01:54:13.253Z,26.10
2018-12-13T01:56:40.772Z,28.60
2018-12-13T01:59:08.269Z,31.00
2018-12-13T02:01:35.782Z,32.90
2018-12-13T02:04:03.307Z,38.10
2018-12-13T02:06:30.818Z,41.40
2018-12-13T02:08:58.319Z,41.20
2018-12-13T02:11:25.841Z,39.50
2018-12-13T02:13:53.342Z,39.50
2018-12-13T02:16:21.067Z,38.50
2018-12-13T02:18:48.608Z,34.70
2018-12-13T02:21:16.105Z,34.10
2018-12-13T02:23:43.621Z,39.00
2018-12-13T02:26:11.143Z,34.60
2018-12-13T02:28:38.913Z,35.80
2018-12-13T02:31:06.678Z,39.30
2018-12-13T02:33:34.441Z,42.00
2018-12-13T02:36:02.913Z,46.20
2018-12-13T02:38:30.414Z,47.10
2018-12-13T02:40:57.956Z,47.80
2018-12-13T02:43:25.454Z,48.40
2018-12-13T02:45:52.969Z,46.90
2018-12-13T02:48:20.502Z,44.30
2018-12-13T02:50:48.005Z,44.90
2018-12-13T02:53:15.506Z,43.90
2018-12-13T02:55:43.970Z,44.10
2018-12-13T02:58:11.472Z,43.70
2018-12-13T03:00:38.982Z,45.20
2018-12-13T03:03:06.546Z,44.70
2018-12-13T03:05:34.046Z,44.90
2018-12-13T03:08:01.774Z,44.10
2018-12-13T03:10:29.300Z,43.50
2018-12-13T03:12:58.106Z,41.70
2018-12-13T03:15:26.414Z,43.90
2018-12-13T03:17:54.874Z,40.20
2018-12-13T03:20:22.369Z,42.00
2018-12-13T03:22:49.869Z,41.30
2018-12-13T03:25:17.402Z,37.90
2018-12-13T03:27:45.010Z,36.80
2018-12-13T03:30:12.781Z,35.30
2018-12-13T03:32:40.678Z,35.30
2018-12-13T03:35:08.265Z,34.40
2018-12-13T03:37:35.929Z,33.40
2018-12-13T03:40:04.712Z,34.20
2018-12-13T03:42:32.273Z,33.00
2018-12-13T03:44:59.773Z,31.30
2018-12-13T03:47:28.755Z,28.00
2018-12-13T03:49:56.853Z,28.80
2018-12-13T03:52:25.218Z,26.90
2018-12-13T03:54:52.818Z,27.90
2018-12-13T03:57:20.346Z,27.30
2018-12-13T03:59:48.072Z,26.70
2018-12-13T04:02:15.597Z,30.50
2018-12-13T04:04:43.117Z,26.90
2018-12-13T04:07:10.909Z,26.60
2018-12-13T04:09:38.434Z,25.30
2018-12-13T04:12:05.955Z,24.60
2018-12-13T04:14:33.463Z,24.40
2018-12-13T04:17:00.982Z,28.00
2018-12-13T04:19:29.045Z,23.70
2018-12-13T04:21:58.523Z,26.10
2018-12-13T04:24:26.050Z,24.30
2018-12-13T04:26:53.913Z,22.60
2018-12-13T04:29:21.462Z,22.10
2018-12-13T04:31:49.236Z,21.20
2018-12-13T04:34:16.733Z,21.40
2018-12-13T04:36:44.225Z,22.30
2018-12-13T04:39:11.747Z,22.60
2018-12-13T04:41:39.247Z,21.10
2018-12-13T04:44:07.065Z,18.40
2018-12-13T04:46:34.590Z,17.50
2018-12-13T04:49:02.089Z,14.40
2018-12-13T04:51:29.598Z,10.30
2018-12-13T04:53:57.151Z,9.40
2018-12-13T04:56:24.742Z,11.40
2018-12-13T04:58:52.257Z,9.10
2018-12-13T05:01:19.858Z,6.60
2018-12-13T05:03:47.357Z,6.90
2018-12-13T05:06:15.092Z,7.50
2018-12-13T05:08:42.741Z,5.10
2018-12-13T05:11:10.518Z,3.90
2018-12-13T05:13:38.009Z,2.40
2018-12-13T05:16:05.841Z,1.00
2018-12-13T05:18:33.333Z,1.00
2018-12-13T05:21:00.846Z,1.00
2018-12-13T05:23:28.356Z,1.00
2018-12-13T05:25:55.846Z,1.00
2018-12-13T05:28:23.641Z,1.00
2018-12-13T05:30:51.157Z,1.00
2018-12-13T05:33:18.650Z,1.00
2018-12-13T05:35:46.146Z,1.00
2018-12-13T05:38:13.653Z,1.00
2018-12-13T05:40:41.157Z,1.00
2018-12-13T05:43:08.646Z,1.00
2018-12-13T05:45:36.281Z,1.00
2018-12-13T05:48:03.996Z,1.00
2018-12-13T05:50:31.711Z,1.00
2018-12-13T05:52:59.355Z,1.00
2018-12-13T05:55:27.653Z,1.00
2018-12-13T05:57:55.152Z,1.00
2018-12-13T06:00:22.933Z,1.00
2018-12-13T06:02:51.051Z,5.80
2018-12-13T06:05:19.089Z,2.70
2018-12-13T06:07:54.651Z,15.80
2018-12-13T06:10:20.385Z,23.00
2018-12-13T06:12:48.494Z,25.70
2018-12-13T06:15:16.287Z,35.40
2018-12-13T06:17:45.982Z,29.80
2018-12-13T06:20:13.604Z,35.20
2018-12-13T06:22:41.100Z,32.50
2018-12-13T06:25:08.625Z,40.20
2018-12-13T06:27:36.150Z,38.10
2018-12-13T06:30:07.602Z,46.40
2018-12-13T06:32:35.282Z,39.20
2018-12-13T06:35:02.874Z,41.20
2018-12-13T06:37:30.365Z,28.40
2018-12-13T06:39:57.913Z,26.10
2018-12-13T06:42:25.412Z,34.40
2018-12-13T06:44:52.913Z,18.70
2018-12-13T06:47:20.461Z,25.60
2018-12-13T06:49:47.954Z,25.90
2018-12-13T06:52:15.457Z,16.80
2018-12-13T06:54:42.969Z,4.00
2018-12-13T06:57:10.454Z,1.40
2018-12-13T06:59:38.285Z,18.60
2018-12-13T07:02:05.885Z,30.90
2018-12-13T07:04:33.465Z,33.50
2018-12-13T07:07:00.989Z,35.40
2018-12-13T07:09:28.491Z,37.20
2018-12-13T07:11:56.225Z,33.70
2018-12-13T07:14:23.742Z,29.60
2018-12-13T07:16:51.234Z,29.30
2018-12-13T07:19:18.751Z,31.30
2018-12-13T07:21:46.274Z,28.40
2018-12-13T07:24:13.781Z,22.10
2018-12-13T07:26:41.285Z,1.00
2018-12-13T07:29:08.798Z,1.00
2018-12-13T07:31:36.305Z,1.00
2018-12-13T07:34:03.881Z,1.00
2018-12-13T07:36:31.669Z,1.00
2018-12-13T07:38:59.433Z,1.00
2018-12-13T07:41:26.913Z,1.00
2018-12-13T07:43:54.422Z,1.00
2018-12-13T07:46:21.909Z,1.00
2018-12-13T07:48:49.414Z,1.00
2018-12-13T07:51:16.910Z,1.00
2018-12-13T07:53:44.401Z,1.00
2018-12-13T07:56:12.013Z,1.00
2018-12-13T07:58:39.505Z,1.00
2018-12-13T08:01:07.013Z,1.00
2018-12-13T08:03:34.530Z,1.00
2018-12-13T08:06:02.026Z,1.00
2018-12-13T08:08:29.837Z,1.00
2018-12-13T08:10:57.349Z,1.00
2018-12-13T08:13:25.162Z,1.00
2018-12-13T08:15:52.649Z,1.00
2018-12-13T08:18:20.154Z,1.00
2018-12-13T08:20:47.778Z,1.00
2018-12-13T08:23:15.267Z,1.00
2018-12-13T08:25:42.776Z,1.00
2018-12-13T08:28:10.285Z,1.00
2018-12-13T08:30:37.794Z,1.00
2018-12-13T08:33:05.306Z,1.00
2018-12-13T08:35:32.859Z,1.00
2018-12-13T08:38:00.648Z,1.00
2018-12-13T08:40:28.161Z,1.00
2018-12-13T08:42:55.641Z,1.00
2018-12-13T08:45:24.382Z,1.00
2018-12-13T08:47:52.070Z,1.00
2018-12-13T08:50:19.901Z,1.00
2018-12-13T08:52:47.485Z,1.00
2018-12-13T08:55:14.995Z,1.00
2018-12-13T08:57:42.497Z,1.00
2018-12-13T09:00:10.321Z,1.00
2018-12-13T09:02:37.829Z,1.00
2018-12-13T09:05:05.573Z,1.00
2018-12-13T09:07:33.081Z,1.00
2018-12-13T09:10:01.031Z,1.00
2018-12-13T09:12:28.523Z,1.00
2018-12-13T09:14:56.289Z,1.00
2018-12-13T09:17:23.784Z,1.00
2018-12-13T09:19:51.273Z,1.00
2018-12-13T09:22:18.789Z,1.00
2018-12-13T09:24:46.270Z,1.00
2018-12-13T09:27:13.761Z,1.00
2018-12-13T09:29:41.275Z,1.00
2018-12-13T09:32:09.109Z,1.00
2018-12-13T09:34:36.598Z,1.00
2018-12-13T09:37:04.086Z,1.00
2018-12-13T09:39:31.594Z,1.00
2018-12-13T09:41:59.305Z,1.00
2018-12-13T09:44:26.817Z,1.00
2018-12-13T09:46:54.329Z,1.00
2018-12-13T09:49:21.833Z,1.00
2018-12-13T09:51:49.313Z,1.00
2018-12-13T09:54:17.133Z,1.00
2018-12-13T09:56:44.613Z,1.00
2018-12-13T09:59:12.093Z,1.00
2018-12-13T10:01:39.606Z,1.00
2018-12-13T10:04:07.089Z,1.00
2018-12-13T10:06:34.569Z,99.90
2018-12-13T10:09:02.078Z,1.00
2018-12-13T10:11:29.557Z,1.00
2018-12-13T10:13:57.085Z,1.00
2018-12-13T10:16:24.593Z,1.00
2018-12-13T10:18:52.077Z,1.00
2018-12-13T10:21:19.557Z,1.00
2018-12-13T10:23:47.066Z,1.00
2018-12-13T10:26:14.558Z,1.00
2018-12-13T10:28:42.601Z,1.00
2018-12-13T10:31:10.114Z,1.00
2018-12-13T10:33:37.598Z,1.00
2018-12-13T10:36:05.090Z,1.00
2018-12-13T10:38:32.595Z,1.00
2018-12-13T10:41:00.162Z,1.00
2018-12-13T10:43:27.721Z,1.00
2018-12-13T10:45:55.175Z,1.00
2018-12-13T10:48:22.644Z,1.00
2018-12-13T10:50:50.101Z,1.00
2018-12-13T10:53:17.572Z,1.00
2018-12-13T10:55:45.028Z,1.00
2018-12-13T10:58:12.477Z,1.00
2018-12-13T11:00:41.993Z,1.00
2018-12-13T11:03:20.208Z,1.00
2018-12-13T11:05:47.762Z,1.00
2018-12-13T11:08:15.208Z,1.00
2018-12-13T11:10:42.724Z,1.00
2018-12-13T11:13:10.215Z,1.00
2018-12-13T11:15:39.858Z,1.00
2018-12-13T11:18:08.146Z,1.00
2018-12-13T11:20:35.624Z,1.00
2018-12-13T11:23:03.190Z,1.00
2018-12-13T11:25:30.720Z,1.00
2018-12-13T11:28:19.092Z,1.00
2018-12-13T11:30:46.855Z,1.00
2018-12-13T11:33:14.376Z,1.00
2018-12-13T11:35:41.852Z,1.00
2018-12-13T11:38:09.367Z,1.00
2018-12-13T11:40:36.849Z,1.00
2018-12-13T11:43:04.364Z,1.00
2018-12-13T11:45:32.212Z,1.00
2018-12-13T11:47:59.669Z,1.00
2018-12-13T11:50:27.130Z,1.00
2018-12-13T11:52:54.660Z,1.00
2018-12-13T11:55:32.629Z,1.00
2018-12-13T11:58:00.179Z,1.00
2018-12-13T12:00:27.924Z,1.00
2018-12-13T12:02:55.376Z,1.00
2018-12-13T12:05:23.132Z,1.00
2018-12-13T12:07:50.593Z,1.00
2018-12-13T12:10:18.044Z,1.00
2018-12-13T12:12:45.524Z,1.00
2018-12-13T12:15:13.072Z,1.00
2018-12-13T12:17:40.581Z,1.00
2018-12-13T12:20:08.184Z,1.00
2018-12-13T12:22:35.700Z,1.00
2018-12-13T12:25:04.296Z,1.00
2018-12-13T12:27:31.776Z,1.00
2018-12-13T12:29:59.243Z,1.00
2018-12-13T12:32:26.772Z,1.00
2018-12-13T12:34:54.244Z,1.00
2018-12-13T12:37:21.704Z,1.00
2018-12-13T12:39:49.192Z,1.00
2018-12-13T12:42:16.644Z,1.00
2018-12-13T12:44:44.140Z,1.00
2018-12-13T12:47:11.843Z,1.00
2018-12-13T12:49:39.312Z,1.00
2018-12-13T12:52:06.768Z,1.00
2018-12-13T12:54:34.243Z,1.00
2018-12-13T12:57:01.735Z,1.00
2018-12-13T12:59:29.191Z,1.00
2018-12-13T13:01:56.652Z,1.00
2018-12-13T13:04:24.137Z,1.00
2018-12-13T13:06:51.590Z,1.00
2018-12-13T13:09:24.837Z,1.00
2018-12-13T13:11:48.557Z,1.00
2018-12-13T13:14:16.324Z,1.00
2018-12-13T13:16:43.780Z,1.00
2018-12-13T13:19:11.256Z,1.00
2018-12-13T13:21:38.736Z,1.00
2018-12-13T13:24:06.188Z,1.00
2018-12-13T13:26:33.636Z,1.00
2018-12-13T13:29:01.131Z,1.00
2018-12-13T13:31:28.583Z,1.00
2018-12-13T13:33:56.036Z,1.00
2018-12-13T13:36:23.633Z,99.90
2018-12-13T13:38:51.076Z,1.00
2018-12-13T13:41:18.864Z,1.00
2018-12-13T13:43:46.320Z,1.00
2018-12-13T13:46:13.776Z,1.00
2018-12-13T13:48:41.256Z,1.00
2018-12-13T13:51:08.716Z,1.00
2018-12-13T13:53:36.173Z,1.00
2018-12-13T13:56:03.644Z,1.00
2018-12-13T13:58:31.119Z,99.90
2018-12-13T14:00:58.696Z,1.00
2018-12-13T14:03:26.384Z,1.00
2018-12-13T14:05:53.840Z,1.00
2018-12-13T14:08:21.312Z,1.00
2018-12-13T14:10:48.840Z,1.00
2018-12-13T14:13:16.304Z,1.00
2018-12-13T14:15:43.780Z,1.00
2018-12-13T14:18:11.236Z,1.00
2018-12-13T14:20:38.725Z,1.00
2018-12-13T14:23:06.180Z,1.00
2018-12-13T14:25:33.911Z,1.00
2018-12-13T14:28:01.668Z,1.00
2018-12-13T14:30:29.126Z,1.00
2018-12-13T14:32:56.596Z,99.90
2018-12-13T14:35:24.076Z,1.00
2018-12-13T14:37:51.541Z,99.90
2018-12-13T14:40:19.017Z,99.90
2018-12-13T14:42:46.497Z,1.00
2018-12-13T14:45:13.962Z,99.90
2018-12-13T14:47:41.435Z,99.90
2018-12-13T14:50:09.049Z,99.90
2018-12-13T14:52:36.512Z,1.00
2018-12-13T14:55:04.220Z,99.90
2018-12-13T14:57:31.672Z,1.00
2018-12-13T14:59:59.429Z,1.00
2018-12-13T15:02:26.924Z,99.90
2018-12-13T15:04:54.884Z,99.90
2018-12-13T15:07:22.620Z,1.00
2018-12-13T15:09:51.114Z,99.90
2018-12-13T15:12:19.168Z,1.00
2018-12-13T15:14:46.651Z,1.00
2018-12-13T15:17:14.100Z,1.00
2018-12-13T15:19:41.569Z,99.90
2018-12-13T15:22:09.052Z,99.90
2018-12-13T15:24:36.520Z,99.90
2018-12-13T15:27:03.992Z,1.00
2018-12-13T15:29:31.464Z,1.00
2018-12-13T15:31:59.478Z,1.00
2018-12-13T15:34:27.311Z,1.00
2018-12-13T15:36:54.800Z,99.90
2018-12-13T15:39:22.260Z,99.90
2018-12-13T15:41:49.736Z,99.90
2018-12-13T15:44:17.208Z,99.90
2018-12-13T15:46:44.692Z,99.90
2018-12-13T15:49:12.157Z,99.90
2018-12-13T15:51:39.635Z,99.90
2018-12-13T15:54:07.119Z,99.90
2018-12-13T15:56:34.581Z,99.90
2018-12-13T15:59:02.552Z,99.90
2018-12-13T16:01:30.136Z,99.90
2018-12-13T16:03:57.912Z,99.90
2018-12-13T16:06:25.508Z,99.90
2018-12-13T16:08:53.095Z,99.90
2018-12-13T16:11:20.581Z,99.90
2018-12-13T16:13:48.073Z,99.90
2018-12-13T16:16:15.687Z,99.90
2018-12-13T16:18:43.247Z,99.90
2018-12-13T16:21:10.840Z,99.90
2018-12-13T16:23:38.593Z,99.90
2018-12-13T16:26:06.116Z,99.90
2018-12-13T16:28:33.833Z,99.90
2018-12-13T16:31:01.284Z,99.90
2018-12-13T16:33:28.744Z,99.90
2018-12-13T16:35:56.240Z,99.90
2018-12-13T16:38:23.699Z,99.90
2018-12-13T16:40:51.161Z,99.90
2018-12-13T16:43:18.657Z,99.90
2018-12-13T16:45:46.120Z,99.90
2018-12-13T16:48:13.650Z,99.90
2018-12-13T16:50:41.136Z,99.90
2018-12-13T16:53:08.932Z,99.90
2018-12-13T16:55:36.656Z,99.90
2018-12-13T16:58:04.138Z,99.90
2018-12-13T17:00:31.592Z,99.90
2018-12-13T17:02:59.053Z,99.90
2018-12-13T17:05:26.528Z,99.90
2018-12-13T17:07:53.988Z,99.90
2018-12-13T17:10:21.448Z,99.90
2018-12-13T17:12:48.928Z,99.90
2018-12-13T17:15:16.737Z,6.40
2018-12-13T17:17:44.222Z,99.90
2018-12-13T17:20:11.844Z,99.90
2018-12-13T17:22:39.307Z,99.90
2018-12-13T17:25:06.860Z,99.90
2018-12-13T17:27:34.323Z,99.90
2018-12-13T17:30:01.785Z,1.00
2018-12-13T17:32:29.272Z,31.10
2018-12-13T17:34:56.724Z,1.00
2018-12-13T17:37:24.448Z,61.20
2018-12-13T17:39:51.898Z,1.00
2018-12-13T17:42:19.541Z,99.90
2018-12-13T17:44:47.016Z,1.00
2018-12-13T17:47:14.480Z,1.00
2018-12-13T17:49:41.944Z,1.00
2018-12-13T17:52:09.410Z,1.00
2018-12-13T17:54:37.157Z,99.90
2018-12-13T17:57:04.662Z,1.00
2018-12-13T17:59:32.117Z,1.00
2018-12-13T18:01:59.677Z,1.00
2018-12-13T18:04:27.393Z,82.90
2018-12-13T18:06:54.860Z,99.90
2018-12-13T18:09:22.333Z,1.00
2018-12-13T18:11:49.813Z,1.00
2018-12-13T18:14:17.530Z,34.40
2018-12-13T18:16:45.433Z,99.90
2018-12-13T18:19:12.992Z,99.90
2018-12-13T18:21:40.676Z,99.90
2018-12-13T18:24:08.159Z,1.00
2018-12-13T18:26:35.632Z,99.90
2018-12-13T18:29:03.399Z,99.90
2018-12-13T18:34:04.752Z,1.00
2018-12-13T18:36:32.234Z,77.30
2018-12-13T18:38:59.981Z,99.90
2018-12-13T18:41:27.507Z,99.90
2018-12-13T18:43:55.000Z,99.90
2018-12-13T18:46:22.455Z,76.00
2018-12-13T18:48:50.216Z,99.90
2018-12-13T18:51:17.705Z,87.50
2018-12-13T18:53:45.436Z,93.30
2018-12-13T18:56:12.893Z,1.00
2018-12-13T18:58:40.392Z,64.90
2018-12-13T19:01:07.910Z,99.90
2018-12-13T19:03:35.693Z,1.00
2018-12-13T19:06:03.420Z,1.00
2018-12-13T19:08:32.025Z,1.00
2018-12-13T19:10:59.560Z,1.00
2018-12-13T19:13:27.028Z,1.00
2018-12-13T19:15:54.486Z,1.00
2018-12-13T19:18:22.008Z,99.90
2018-12-13T19:20:49.488Z,99.90
2018-12-13T19:23:16.953Z,99.90
2018-12-13T19:25:44.404Z,99.90
2018-12-13T19:28:11.904Z,99.90
2018-12-13T19:30:39.364Z,66.20
2018-12-13T19:33:06.821Z,1.00
2018-12-13T19:35:34.313Z,99.90
2018-12-13T19:38:02.844Z,1.00
2018-12-13T19:40:30.336Z,1.00
2018-12-13T19:42:57.812Z,99.90
2018-12-13T19:45:25.268Z,1.00
2018-12-13T19:47:52.754Z,99.90
2018-12-13T19:50:20.237Z,99.90
2018-12-13T19:52:47.695Z,99.90
2018-12-13T19:55:15.179Z,1.00
2018-12-13T19:57:42.645Z,1.00
2018-12-13T20:00:10.174Z,99.90
2018-12-13T20:02:37.620Z,1.00
2018-12-13T20:05:05.931Z,1.00
2018-12-13T20:07:33.883Z,99.90
2018-12-13T20:10:01.616Z,99.90
2018-12-13T20:12:29.381Z,1.00
2018-12-13T20:14:56.836Z,1.00
2018-12-13T20:17:24.304Z,1.00
2018-12-13T20:19:51.772Z,1.00
2018-12-13T20:22:19.660Z,84.50
2018-12-13T20:24:47.128Z,1.00
2018-12-13T20:27:14.598Z,1.00
2018-12-13T20:29:42.421Z,31.00
2018-12-13T20:32:10.221Z,99.90
2018-12-13T20:34:37.703Z,1.00
2018-12-13T20:37:05.215Z,1.00
2018-12-13T20:39:32.716Z,1.00
2018-12-13T20:42:00.200Z,1.00
2018-12-13T20:44:27.982Z,13.00
2018-12-13T20:46:55.720Z,99.90
2018-12-13T20:49:23.197Z,44.80
2018-12-13T20:51:50.711Z,99.90
2018-12-13T20:54:18.169Z,99.90
2018-12-13T20:56:45.871Z,98.00
2018-12-13T20:59:13.328Z,99.90
2018-12-13T21:01:40.789Z,70.60
2018-12-13T21:04:08.265Z,99.90
2018-12-13T21:06:35.728Z,99.90
2018-12-13T21:09:05.202Z,99.90
2018-12-13T21:11:32.696Z,99.90
2018-12-13T21:14:00.148Z,99.90
2018-12-13T21:16:27.650Z,99.90
2018-12-13T21:18:55.168Z,99.90
2018-12-13T21:21:22.781Z,39.70
2018-12-13T21:23:50.256Z,99.90
2018-12-13T21:26:17.869Z,99.90
2018-12-13T21:28:45.327Z,99.90
2018-12-13T21:31:12.856Z,99.90
2018-12-13T21:33:40.621Z,99.90
2018-12-13T21:36:08.148Z,99.90
2018-12-13T21:38:35.612Z,99.90
2018-12-13T21:41:03.096Z,99.90
2018-12-13T21:43:30.808Z,99.90
2018-12-13T21:45:58.268Z,99.90
2018-12-13T21:48:25.818Z,99.90
2018-12-13T21:50:53.272Z,99.90
2018-12-13T21:53:20.797Z,99.90
2018-12-13T21:55:48.277Z,99.90
2018-12-13T21:58:15.731Z,99.90
2018-12-13T22:00:43.213Z,99.90
2018-12-13T22:03:10.717Z,99.90
2018-12-13T22:05:38.181Z,99.90
2018-12-13T22:08:05.892Z,99.90
2018-12-13T22:10:33.389Z,99.90
2018-12-13T22:13:00.908Z,99.90
2018-12-13T22:15:28.372Z,99.90
2018-12-13T22:17:55.913Z,99.90
2018-12-13T22:20:23.376Z,99.90
2018-12-13T22:22:51.161Z,99.90
2018-12-13T22:25:18.636Z,99.90
2018-12-13T22:27:46.092Z,99.90
2018-12-13T22:30:13.553Z,99.90
2018-12-13T22:32:41.384Z,99.90
2018-12-13T22:35:08.836Z,99.90
2018-12-13T22:37:36.304Z,99.90
2018-12-13T22:40:04.313Z,99.90
2018-12-13T22:42:31.772Z,99.90
2018-12-13T22:44:59.241Z,99.90
2018-12-13T22:47:26.820Z,99.90
2018-12-13T22:49:54.297Z,99.90
2018-12-13T22:52:22.056Z,99.90
2018-12-13T22:54:49.552Z,1.00
2018-12-13T22:57:17.248Z,1.00
2018-12-13T22:59:44.729Z,99.90
2018-12-13T23:02:12.208Z,99.90
2018-12-13T23:04:39.664Z,1.00
2018-12-13T23:07:07.135Z,1.00
2018-12-13T23:09:34.869Z,1.00
2018-12-13T23:12:02.341Z,99.90
2018-12-13T23:14:29.981Z,99.90
2018-12-13T23:16:57.457Z,99.90
2018-12-13T23:19:24.934Z,99.90
2018-12-13T23:21:52.396Z,99.90
2018-12-13T23:24:19.875Z,1.00
2018-12-13T23:26:47.372Z,99.90
2018-12-13T23:29:14.844Z,99.90
2018-12-13T23:31:42.332Z,99.90
2018-12-13T23:34:09.816Z,99.90
2018-12-13T23:36:37.500Z,1.00
2018-12-13T23:39:05.409Z,99.90
2018-12-13T23:41:38.991Z,99.90
2018-12-13T23:44:02.897Z,1.00
2018-12-13T23:46:30.564Z,1.00
2018-12-13T23:48:58.022Z,1.00
2018-12-13T23:51:25.508Z,99.90
2018-12-13T23:53:52.986Z,99.90
2018-12-13T23:56:20.461Z,99.90
2018-12-13T23:58:48.284Z,1.00
